sensor_id;sensor_type;location;lat;lon;timestamp;temperature;humidity
2212;DHT22;48849;48.758;9.158;2022-09-09T00:02:08;19.80;99.90
2212;DHT22;48849;48.758;9.158;2022-09-09T00:04:39;19.80;99.90
2212;DHT22;48849;48.758;9.158;2022-09-09T00:07:13;19.90;99.90
2212;DHT22;48849;48.758;9.158;2022-09-09T00:09:46;19.80;99.90
2212;DHT22;48849;48.758;9.158;2022-09-09T00:12:17;19.70;99.90
2212;DHT22;48849;48.758;9.158;2022-09-09T00:14:49;19.70;99.90
2212;DHT22;48849;48.758;9.158;2022-09-09T00:17:25;19.60;99.90
2212;DHT22;48849;48.758;9.158;2022-09-09T00:20:01;19.60;99.90
2212;DHT22;48849;48.758;9.158;2022-09-09T00:22:30;19.60;99.90
2212;DHT22;48849;48.758;9.158;2022-09-09T00:25:02;19.70;99.90
2212;DHT22;48849;48.758;9.158;2022-09-09T00:27:36;19.60;99.90
2212;DHT22;48849;48.758;9.158;2022-09-09T00:30:14;19.60;99.90
2212;DHT22;48849;48.758;9.158;2022-09-09T00:32:44;19.60;99.90
2212;DHT22;48849;48.758;9.158;2022-09-09T00:35:17;19.60;99.90
2212;DHT22;48849;48.758;9.158;2022-09-09T00:37:46;19.70;99.90
2212;DHT22;48849;48.758;9.158;2022-09-09T00:40:22;19.70;99.90
2212;DHT22;48849;48.758;9.158;2022-09-09T00:42:57;19.70;99.90
2212;DHT22;48849;48.758;9.158;2022-09-09T00:45:41;19.80;99.90
2212;DHT22;48849;48.758;9.158;2022-09-09T00:48:11;20.00;99.90
2212;DHT22;48849;48.758;9.158;2022-09-09T00:50:45;19.80;99.90
2212;DHT22;48849;48.758;9.158;2022-09-09T00:53:24;19.80;99.90
2212;DHT22;48849;48.758;9.158;2022-09-09T00:56:01;19.80;99.90
2212;DHT22;48849;48.758;9.158;2022-09-09T00:58:30;19.80;99.90
2212;DHT22;48849;48.758;9.158;2022-09-09T01:01:03;19.80;99.90
2212;DHT22;48849;48.758;9.158;2022-09-09T01:03:34;19.80;99.90
2212;DHT22;48849;48.758;9.158;2022-09-09T01:06:12;19.80;99.90
2212;DHT22;48849;48.758;9.158;2022-09-09T01:08:58;19.90;99.90
2212;DHT22;48849;48.758;9.158;2022-09-09T01:11:38;19.90;99.90
2212;DHT22;48849;48.758;9.158;2022-09-09T01:14:16;20.00;99.90
2212;DHT22;48849;48.758;9.158;2022-09-09T01:16:45;20.00;99.90
2212;DHT22;48849;48.758;9.158;2022-09-09T01:19:20;20.10;99.90
2212;DHT22;48849;48.758;9.158;2022-09-09T01:21:56;20.00;99.90
2212;DHT22;48849;48.758;9.158;2022-09-09T01:24:34;20.00;99.90
2212;DHT22;48849;48.758;9.158;2022-09-09T01:27:04;20.00;99.90
2212;DHT22;48849;48.758;9.158;2022-09-09T01:29:32;19.90;99.90
2212;DHT22;48849;48.758;9.158;2022-09-09T01:32:01;19.90;99.90
2212;DHT22;48849;48.758;9.158;2022-09-09T01:34:31;19.90;99.90
2212;DHT22;48849;48.758;9.158;2022-09-09T01:37:03;19.80;99.90
2212;DHT22;48849;48.758;9.158;2022-09-09T01:39:32;19.80;99.90
2212;DHT22;48849;48.758;9.158;2022-09-09T01:41:59;19.80;99.90
2212;DHT22;48849;48.758;9.158;2022-09-09T01:44:28;19.80;99.90
2212;DHT22;48849;48.758;9.158;2022-09-09T01:46:56;19.80;99.90
2212;DHT22;48849;48.758;9.158;2022-09-09T01:49:23;19.80;99.90
2212;DHT22;48849;48.758;9.158;2022-09-09T01:51:52;19.80;99.90
2212;DHT22;48849;48.758;9.158;2022-09-09T01:54:19;19.80;99.90
2212;DHT22;48849;48.758;9.158;2022-09-09T01:56:54;19.80;99.90
2212;DHT22;48849;48.758;9.158;2022-09-09T01:59:54;19.80;99.90
2212;DHT22;48849;48.758;9.158;2022-09-09T02:02:30;19.70;99.90
2212;DHT22;48849;48.758;9.158;2022-09-09T02:05:11;19.70;99.90
2212;DHT22;48849;48.758;9.158;2022-09-09T02:07:43;19.70;99.90
2212;DHT22;48849;48.758;9.158;2022-09-09T02:10:17;19.80;99.90
2212;DHT22;48849;48.758;9.158;2022-09-09T02:12:48;19.80;99.90
2212;DHT22;48849;48.758;9.158;2022-09-09T02:15:34;19.70;99.90
2212;DHT22;48849;48.758;9.158;2022-09-09T02:18:04;19.70;99.90
2212;DHT22;48849;48.758;9.158;2022-09-09T02:20:35;19.70;99.90
2212;DHT22;48849;48.758;9.158;2022-09-09T02:23:04;19.70;99.90
2212;DHT22;48849;48.758;9.158;2022-09-09T02:25:33;19.60;99.90
2212;DHT22;48849;48.758;9.158;2022-09-09T02:28:03;19.60;99.90
2212;DHT22;48849;48.758;9.158;2022-09-09T02:30:34;19.50;99.90
2212;DHT22;48849;48.758;9.158;2022-09-09T02:33:03;19.50;99.90
2212;DHT22;48849;48.758;9.158;2022-09-09T02:35:32;19.50;99.90
2212;DHT22;48849;48.758;9.158;2022-09-09T02:38:06;19.50;99.90
2212;DHT22;48849;48.758;9.158;2022-09-09T02:40:34;19.50;99.90
2212;DHT22;48849;48.758;9.158;2022-09-09T02:43:00;19.50;99.90
2212;DHT22;48849;48.758;9.158;2022-09-09T02:45:34;19.60;99.90
2212;DHT22;48849;48.758;9.158;2022-09-09T02:48:07;19.50;99.90
2212;DHT22;48849;48.758;9.158;2022-09-09T02:50:42;19.50;99.90
2212;DHT22;48849;48.758;9.158;2022-09-09T02:53:17;19.40;99.90
2212;DHT22;48849;48.758;9.158;2022-09-09T02:55:47;19.40;99.90
2212;DHT22;48849;48.758;9.158;2022-09-09T02:58:16;19.30;99.90
2212;DHT22;48849;48.758;9.158;2022-09-09T03:00:46;19.40;99.90
2212;DHT22;48849;48.758;9.158;2022-09-09T03:03:13;19.40;99.90
2212;DHT22;48849;48.758;9.158;2022-09-09T03:05:41;19.30;99.90
2212;DHT22;48849;48.758;9.158;2022-09-09T03:08:08;19.30;99.90
2212;DHT22;48849;48.758;9.158;2022-09-09T03:10:35;19.30;99.90
2212;DHT22;48849;48.758;9.158;2022-09-09T03:13:03;19.40;99.90
2212;DHT22;48849;48.758;9.158;2022-09-09T03:15:30;19.30;99.90
2212;DHT22;48849;48.758;9.158;2022-09-09T03:17:59;19.30;99.90
2212;DHT22;48849;48.758;9.158;2022-09-09T03:20:27;19.40;99.90
2212;DHT22;48849;48.758;9.158;2022-09-09T03:22:54;19.40;99.90
2212;DHT22;48849;48.758;9.158;2022-09-09T03:25:22;19.30;99.90
2212;DHT22;48849;48.758;9.158;2022-09-09T03:27:49;19.30;99.90
2212;DHT22;48849;48.758;9.158;2022-09-09T03:30:18;19.30;99.90
2212;DHT22;48849;48.758;9.158;2022-09-09T03:32:45;19.40;99.90
2212;DHT22;48849;48.758;9.158;2022-09-09T03:35:13;19.40;99.90
2212;DHT22;48849;48.758;9.158;2022-09-09T03:37:40;19.40;99.90
2212;DHT22;48849;48.758;9.158;2022-09-09T03:40:08;19.40;99.90
2212;DHT22;48849;48.758;9.158;2022-09-09T03:42:36;19.40;99.90
2212;DHT22;48849;48.758;9.158;2022-09-09T03:45:03;19.40;99.90
2212;DHT22;48849;48.758;9.158;2022-09-09T03:47:30;19.40;99.90
2212;DHT22;48849;48.758;9.158;2022-09-09T03:49:57;19.50;99.90
2212;DHT22;48849;48.758;9.158;2022-09-09T03:52:25;19.50;99.90
2212;DHT22;48849;48.758;9.158;2022-09-09T03:54:52;19.50;99.90
2212;DHT22;48849;48.758;9.158;2022-09-09T03:57:19;19.50;99.90
2212;DHT22;48849;48.758;9.158;2022-09-09T03:59:47;19.40;99.90
2212;DHT22;48849;48.758;9.158;2022-09-09T04:02:13;19.40;99.90
2212;DHT22;48849;48.758;9.158;2022-09-09T04:04:40;19.40;99.90
2212;DHT22;48849;48.758;9.158;2022-09-09T04:07:07;19.40;99.90
2212;DHT22;48849;48.758;9.158;2022-09-09T04:09:35;19.40;99.90
2212;DHT22;48849;48.758;9.158;2022-09-09T04:12:02;19.50;99.90
2212;DHT22;48849;48.758;9.158;2022-09-09T04:14:29;19.50;99.90
2212;DHT22;48849;48.758;9.158;2022-09-09T04:16:56;19.50;99.90
2212;DHT22;48849;48.758;9.158;2022-09-09T04:19:24;19.50;99.90
2212;DHT22;48849;48.758;9.158;2022-09-09T04:21:51;19.50;99.90
2212;DHT22;48849;48.758;9.158;2022-09-09T04:24:18;19.50;99.90
2212;DHT22;48849;48.758;9.158;2022-09-09T04:26:46;19.50;99.90
2212;DHT22;48849;48.758;9.158;2022-09-09T04:29:13;19.60;99.90
2212;DHT22;48849;48.758;9.158;2022-09-09T04:31:40;19.60;99.90
2212;DHT22;48849;48.758;9.158;2022-09-09T04:34:07;19.60;99.90
2212;DHT22;48849;48.758;9.158;2022-09-09T04:36:34;19.60;99.90
2212;DHT22;48849;48.758;9.158;2022-09-09T04:39:01;19.60;99.90
2212;DHT22;48849;48.758;9.158;2022-09-09T04:41:28;19.60;99.90
2212;DHT22;48849;48.758;9.158;2022-09-09T04:43:58;19.60;99.90
2212;DHT22;48849;48.758;9.158;2022-09-09T04:46:25;19.60;99.90
2212;DHT22;48849;48.758;9.158;2022-09-09T04:48:52;19.60;99.90
2212;DHT22;48849;48.758;9.158;2022-09-09T04:51:19;19.60;99.90
2212;DHT22;48849;48.758;9.158;2022-09-09T04:53:45;19.60;99.90
2212;DHT22;48849;48.758;9.158;2022-09-09T04:56:15;19.60;99.90
2212;DHT22;48849;48.758;9.158;2022-09-09T04:58:42;19.60;99.90
2212;DHT22;48849;48.758;9.158;2022-09-09T05:01:12;19.50;99.90
2212;DHT22;48849;48.758;9.158;2022-09-09T05:03:39;19.50;99.90
2212;DHT22;48849;48.758;9.158;2022-09-09T05:06:08;19.50;99.90
2212;DHT22;48849;48.758;9.158;2022-09-09T05:08:36;19.40;99.90
2212;DHT22;48849;48.758;9.158;2022-09-09T05:11:03;19.50;99.90
2212;DHT22;48849;48.758;9.158;2022-09-09T05:13:30;19.40;99.90
2212;DHT22;48849;48.758;9.158;2022-09-09T05:15:57;19.30;99.90
2212;DHT22;48849;48.758;9.158;2022-09-09T05:18:25;19.30;99.90
2212;DHT22;48849;48.758;9.158;2022-09-09T05:20:52;19.30;99.90
2212;DHT22;48849;48.758;9.158;2022-09-09T05:23:19;19.30;99.90
2212;DHT22;48849;48.758;9.158;2022-09-09T05:25:55;19.30;99.90
2212;DHT22;48849;48.758;9.158;2022-09-09T05:28:22;19.30;99.90
2212;DHT22;48849;48.758;9.158;2022-09-09T05:30:55;19.40;99.90
2212;DHT22;48849;48.758;9.158;2022-09-09T05:33:23;19.40;99.90
2212;DHT22;48849;48.758;9.158;2022-09-09T05:35:56;19.40;99.90
2212;DHT22;48849;48.758;9.158;2022-09-09T05:38:23;19.40;99.90
2212;DHT22;48849;48.758;9.158;2022-09-09T05:40:50;19.40;99.90
2212;DHT22;48849;48.758;9.158;2022-09-09T05:43:17;19.40;99.90
2212;DHT22;48849;48.758;9.158;2022-09-09T05:45:45;19.50;99.90
2212;DHT22;48849;48.758;9.158;2022-09-09T05:48:12;19.50;99.90
2212;DHT22;48849;48.758;9.158;2022-09-09T05:50:38;19.50;99.90
2212;DHT22;48849;48.758;9.158;2022-09-09T05:53:06;19.40;99.90
2212;DHT22;48849;48.758;9.158;2022-09-09T05:55:33;19.40;99.90
2212;DHT22;48849;48.758;9.158;2022-09-09T05:58:00;19.40;99.90
2212;DHT22;48849;48.758;9.158;2022-09-09T06:00:26;19.50;99.90
2212;DHT22;48849;48.758;9.158;2022-09-09T06:02:53;19.50;99.90
2212;DHT22;48849;48.758;9.158;2022-09-09T06:05:20;19.50;99.90
2212;DHT22;48849;48.758;9.158;2022-09-09T06:07:48;19.50;99.90
2212;DHT22;48849;48.758;9.158;2022-09-09T06:10:19;19.50;99.90
2212;DHT22;48849;48.758;9.158;2022-09-09T06:12:46;19.60;99.90
2212;DHT22;48849;48.758;9.158;2022-09-09T06:15:13;19.60;99.90
2212;DHT22;48849;48.758;9.158;2022-09-09T06:17:39;19.60;99.90
2212;DHT22;48849;48.758;9.158;2022-09-09T06:20:07;19.70;99.90
2212;DHT22;48849;48.758;9.158;2022-09-09T06:22:35;19.70;99.90
2212;DHT22;48849;48.758;9.158;2022-09-09T06:25:02;19.70;99.90
2212;DHT22;48849;48.758;9.158;2022-09-09T06:27:30;19.80;99.90
2212;DHT22;48849;48.758;9.158;2022-09-09T06:29:56;19.80;99.90
2212;DHT22;48849;48.758;9.158;2022-09-09T06:32:23;19.90;99.90
2212;DHT22;48849;48.758;9.158;2022-09-09T06:34:50;19.90;99.90
2212;DHT22;48849;48.758;9.158;2022-09-09T06:37:17;19.90;99.90
2212;DHT22;48849;48.758;9.158;2022-09-09T06:39:44;20.00;99.90
2212;DHT22;48849;48.758;9.158;2022-09-09T06:42:10;20.00;99.90
2212;DHT22;48849;48.758;9.158;2022-09-09T06:44:38;20.00;99.90
2212;DHT22;48849;48.758;9.158;2022-09-09T06:47:05;20.00;99.90
2212;DHT22;48849;48.758;9.158;2022-09-09T06:49:32;20.10;99.90
2212;DHT22;48849;48.758;9.158;2022-09-09T06:52:00;20.00;99.90
2212;DHT22;48849;48.758;9.158;2022-09-09T06:54:27;20.10;99.90
2212;DHT22;48849;48.758;9.158;2022-09-09T06:56:54;20.10;99.90
2212;DHT22;48849;48.758;9.158;2022-09-09T06:59:20;20.10;99.90
2212;DHT22;48849;48.758;9.158;2022-09-09T07:01:48;20.10;99.90
2212;DHT22;48849;48.758;9.158;2022-09-09T07:04:17;20.20;99.90
2212;DHT22;48849;48.758;9.158;2022-09-09T07:06:45;20.20;99.90
2212;DHT22;48849;48.758;9.158;2022-09-09T07:09:13;20.20;99.90
2212;DHT22;48849;48.758;9.158;2022-09-09T07:11:41;20.20;99.90
2212;DHT22;48849;48.758;9.158;2022-09-09T07:14:09;20.30;99.90
2212;DHT22;48849;48.758;9.158;2022-09-09T07:16:38;20.30;99.90
2212;DHT22;48849;48.758;9.158;2022-09-09T07:19:06;20.30;99.90
2212;DHT22;48849;48.758;9.158;2022-09-09T07:21:33;20.30;99.90
2212;DHT22;48849;48.758;9.158;2022-09-09T07:24:01;20.30;99.90
2212;DHT22;48849;48.758;9.158;2022-09-09T07:26:29;20.30;99.90
2212;DHT22;48849;48.758;9.158;2022-09-09T07:28:57;20.40;99.90
2212;DHT22;48849;48.758;9.158;2022-09-09T07:31:25;20.50;99.90
2212;DHT22;48849;48.758;9.158;2022-09-09T07:33:52;20.50;99.90
2212;DHT22;48849;48.758;9.158;2022-09-09T07:36:22;20.60;99.90
2212;DHT22;48849;48.758;9.158;2022-09-09T07:38:51;20.60;99.90
2212;DHT22;48849;48.758;9.158;2022-09-09T07:41:20;20.60;99.90
2212;DHT22;48849;48.758;9.158;2022-09-09T07:43:48;20.60;99.90
2212;DHT22;48849;48.758;9.158;2022-09-09T07:46:17;20.60;99.90
2212;DHT22;48849;48.758;9.158;2022-09-09T07:48:46;20.60;99.90
2212;DHT22;48849;48.758;9.158;2022-09-09T07:51:16;20.60;99.90
2212;DHT22;48849;48.758;9.158;2022-09-09T07:53:45;20.70;99.90
2212;DHT22;48849;48.758;9.158;2022-09-09T07:56:16;20.70;99.90
2212;DHT22;48849;48.758;9.158;2022-09-09T07:58:45;20.70;99.90
2212;DHT22;48849;48.758;9.158;2022-09-09T08:01:14;20.70;99.90
2212;DHT22;48849;48.758;9.158;2022-09-09T08:03:41;20.70;99.90
2212;DHT22;48849;48.758;9.158;2022-09-09T08:06:09;20.70;99.90
2212;DHT22;48849;48.758;9.158;2022-09-09T08:08:36;20.70;99.90
2212;DHT22;48849;48.758;9.158;2022-09-09T08:11:09;20.80;99.90
2212;DHT22;48849;48.758;9.158;2022-09-09T08:13:37;20.80;99.90
2212;DHT22;48849;48.758;9.158;2022-09-09T08:16:06;20.80;99.90
2212;DHT22;48849;48.758;9.158;2022-09-09T08:18:34;20.80;99.90
2212;DHT22;48849;48.758;9.158;2022-09-09T08:21:09;20.90;99.90
2212;DHT22;48849;48.758;9.158;2022-09-09T08:23:37;20.80;99.90
2212;DHT22;48849;48.758;9.158;2022-09-09T08:26:09;20.90;99.90
2212;DHT22;48849;48.758;9.158;2022-09-09T08:28:36;20.90;99.90
2212;DHT22;48849;48.758;9.158;2022-09-09T08:31:13;20.90;99.90
2212;DHT22;48849;48.758;9.158;2022-09-09T08:33:43;21.00;99.90
2212;DHT22;48849;48.758;9.158;2022-09-09T08:36:13;21.00;99.90
2212;DHT22;48849;48.758;9.158;2022-09-09T08:38:40;21.00;99.90
2212;DHT22;48849;48.758;9.158;2022-09-09T08:44:02;21.00;99.90
2212;DHT22;48849;48.758;9.158;2022-09-09T08:46:38;21.00;99.90
2212;DHT22;48849;48.758;9.158;2022-09-09T08:49:17;21.10;99.90
2212;DHT22;48849;48.758;9.158;2022-09-09T08:51:48;21.10;99.90
2212;DHT22;48849;48.758;9.158;2022-09-09T08:54:16;21.10;99.90
2212;DHT22;48849;48.758;9.158;2022-09-09T08:56:45;21.20;99.90
2212;DHT22;48849;48.758;9.158;2022-09-09T08:59:16;21.20;99.90
2212;DHT22;48849;48.758;9.158;2022-09-09T09:01:58;21.20;99.90
2212;DHT22;48849;48.758;9.158;2022-09-09T09:04:43;21.30;99.90
2212;DHT22;48849;48.758;9.158;2022-09-09T09:07:21;21.30;99.90
2212;DHT22;48849;48.758;9.158;2022-09-09T09:09:57;21.30;99.90
2212;DHT22;48849;48.758;9.158;2022-09-09T09:12:35;21.40;99.90
2212;DHT22;48849;48.758;9.158;2022-09-09T09:15:02;21.40;99.90
2212;DHT22;48849;48.758;9.158;2022-09-09T09:17:37;21.40;99.90
2212;DHT22;48849;48.758;9.158;2022-09-09T09:20:11;21.40;99.90
2212;DHT22;48849;48.758;9.158;2022-09-09T09:22:43;21.40;99.90
2212;DHT22;48849;48.758;9.158;2022-09-09T09:25:15;21.40;99.90
2212;DHT22;48849;48.758;9.158;2022-09-09T09:27:49;21.50;99.90
2212;DHT22;48849;48.758;9.158;2022-09-09T09:30:20;21.40;99.90
2212;DHT22;48849;48.758;9.158;2022-09-09T09:32:52;21.40;99.90
2212;DHT22;48849;48.758;9.158;2022-09-09T09:35:19;21.30;99.90
2212;DHT22;48849;48.758;9.158;2022-09-09T09:37:47;21.30;99.90
2212;DHT22;48849;48.758;9.158;2022-09-09T09:40:16;21.20;99.90
2212;DHT22;48849;48.758;9.158;2022-09-09T09:42:51;21.20;99.90
2212;DHT22;48849;48.758;9.158;2022-09-09T09:45:27;21.20;99.90
2212;DHT22;48849;48.758;9.158;2022-09-09T09:48:01;21.10;99.90
2212;DHT22;48849;48.758;9.158;2022-09-09T09:50:29;21.10;99.90
2212;DHT22;48849;48.758;9.158;2022-09-09T09:52:58;21.10;99.90
2212;DHT22;48849;48.758;9.158;2022-09-09T09:55:26;21.10;99.90
2212;DHT22;48849;48.758;9.158;2022-09-09T09:58:02;21.20;99.90
2212;DHT22;48849;48.758;9.158;2022-09-09T10:00:29;21.20;99.90
2212;DHT22;48849;48.758;9.158;2022-09-09T10:02:56;21.20;99.90
2212;DHT22;48849;48.758;9.158;2022-09-09T10:05:24;21.20;99.90
2212;DHT22;48849;48.758;9.158;2022-09-09T10:08:03;21.30;99.90
2212;DHT22;48849;48.758;9.158;2022-09-09T10:10:44;21.30;99.90
2212;DHT22;48849;48.758;9.158;2022-09-09T10:13:17;21.30;99.90
2212;DHT22;48849;48.758;9.158;2022-09-09T10:15:53;21.30;99.90
2212;DHT22;48849;48.758;9.158;2022-09-09T10:18:45;21.40;99.90
2212;DHT22;48849;48.758;9.158;2022-09-09T10:21:31;21.40;99.90
2212;DHT22;48849;48.758;9.158;2022-09-09T10:24:09;21.40;99.90
2212;DHT22;48849;48.758;9.158;2022-09-09T10:26:46;21.50;99.90
2212;DHT22;48849;48.758;9.158;2022-09-09T10:29:37;21.50;99.90
2212;DHT22;48849;48.758;9.158;2022-09-09T10:32:26;21.60;99.90
2212;DHT22;48849;48.758;9.158;2022-09-09T10:35:01;21.60;99.90
2212;DHT22;48849;48.758;9.158;2022-09-09T10:37:45;21.70;99.90
2212;DHT22;48849;48.758;9.158;2022-09-09T10:40:25;21.70;99.90
2212;DHT22;48849;48.758;9.158;2022-09-09T10:43:00;21.80;99.90
2212;DHT22;48849;48.758;9.158;2022-09-09T10:45:39;21.90;99.90
2212;DHT22;48849;48.758;9.158;2022-09-09T10:48:24;21.90;99.90
2212;DHT22;48849;48.758;9.158;2022-09-09T10:51:00;21.90;99.90
2212;DHT22;48849;48.758;9.158;2022-09-09T10:53:36;21.90;99.90
2212;DHT22;48849;48.758;9.158;2022-09-09T10:56:07;21.90;99.90
2212;DHT22;48849;48.758;9.158;2022-09-09T10:58:40;21.90;99.90
2212;DHT22;48849;48.758;9.158;2022-09-09T11:01:15;22.00;99.90
2212;DHT22;48849;48.758;9.158;2022-09-09T11:03:46;22.00;99.90
2212;DHT22;48849;48.758;9.158;2022-09-09T11:06:19;22.10;99.90
2212;DHT22;48849;48.758;9.158;2022-09-09T11:08:47;22.10;99.90
2212;DHT22;48849;48.758;9.158;2022-09-09T11:11:18;22.10;99.90
2212;DHT22;48849;48.758;9.158;2022-09-09T11:13:49;22.20;99.90
2212;DHT22;48849;48.758;9.158;2022-09-09T11:16:28;22.20;99.90
2212;DHT22;48849;48.758;9.158;2022-09-09T11:18:59;22.30;99.90
2212;DHT22;48849;48.758;9.158;2022-09-09T11:21:28;22.30;99.90
2212;DHT22;48849;48.758;9.158;2022-09-09T11:24:00;22.40;99.90
2212;DHT22;48849;48.758;9.158;2022-09-09T11:26:31;22.30;99.90
2212;DHT22;48849;48.758;9.158;2022-09-09T11:29:15;22.30;99.90
2212;DHT22;48849;48.758;9.158;2022-09-09T11:31:54;22.20;99.90
2212;DHT22;48849;48.758;9.158;2022-09-09T11:34:37;22.20;99.90
2212;DHT22;48849;48.758;9.158;2022-09-09T11:37:29;22.20;99.90
2212;DHT22;48849;48.758;9.158;2022-09-09T11:40:19;22.00;99.90
2212;DHT22;48849;48.758;9.158;2022-09-09T11:42:49;22.00;99.90
2212;DHT22;48849;48.758;9.158;2022-09-09T11:45:27;22.00;99.90
2212;DHT22;48849;48.758;9.158;2022-09-09T11:47:57;22.00;99.90
2212;DHT22;48849;48.758;9.158;2022-09-09T11:50:29;21.90;99.90
2212;DHT22;48849;48.758;9.158;2022-09-09T11:53:18;21.90;99.90
2212;DHT22;48849;48.758;9.158;2022-09-09T11:55:58;21.90;99.90
2212;DHT22;48849;48.758;9.158;2022-09-09T11:58:26;21.90;99.90
2212;DHT22;48849;48.758;9.158;2022-09-09T12:00:54;22.00;99.90
2212;DHT22;48849;48.758;9.158;2022-09-09T12:03:41;22.10;99.90
2212;DHT22;48849;48.758;9.158;2022-09-09T12:06:12;22.40;99.90
2212;DHT22;48849;48.758;9.158;2022-09-09T12:08:43;22.60;99.90
2212;DHT22;48849;48.758;9.158;2022-09-09T12:11:11;22.70;99.90
2212;DHT22;48849;48.758;9.158;2022-09-09T12:13:38;22.80;99.90
2212;DHT22;48849;48.758;9.158;2022-09-09T12:16:28;22.80;99.90
2212;DHT22;48849;48.758;9.158;2022-09-09T12:19:05;22.90;99.90
2212;DHT22;48849;48.758;9.158;2022-09-09T12:21:38;23.10;99.90
2212;DHT22;48849;48.758;9.158;2022-09-09T12:24:09;23.20;99.90
2212;DHT22;48849;48.758;9.158;2022-09-09T12:26:39;23.30;99.90
2212;DHT22;48849;48.758;9.158;2022-09-09T12:29:16;23.60;99.90
2212;DHT22;48849;48.758;9.158;2022-09-09T12:31:53;23.70;99.90
2212;DHT22;48849;48.758;9.158;2022-09-09T12:34:32;23.80;99.90
2212;DHT22;48849;48.758;9.158;2022-09-09T12:37:04;23.90;99.90
2212;DHT22;48849;48.758;9.158;2022-09-09T12:39:35;24.10;99.90
2212;DHT22;48849;48.758;9.158;2022-09-09T12:42:04;24.20;99.90
2212;DHT22;48849;48.758;9.158;2022-09-09T12:44:30;24.10;99.90
2212;DHT22;48849;48.758;9.158;2022-09-09T12:47:00;24.00;99.90
2212;DHT22;48849;48.758;9.158;2022-09-09T12:49:32;23.90;99.90
2212;DHT22;48849;48.758;9.158;2022-09-09T12:52:03;23.80;99.90
2212;DHT22;48849;48.758;9.158;2022-09-09T12:54:32;23.70;99.90
2212;DHT22;48849;48.758;9.158;2022-09-09T12:56:59;23.60;99.90
2212;DHT22;48849;48.758;9.158;2022-09-09T12:59:35;23.50;99.90
2212;DHT22;48849;48.758;9.158;2022-09-09T13:02:02;23.60;99.90
2212;DHT22;48849;48.758;9.158;2022-09-09T13:04:30;23.60;99.90
2212;DHT22;48849;48.758;9.158;2022-09-09T13:07:06;23.60;99.90
2212;DHT22;48849;48.758;9.158;2022-09-09T13:09:35;23.50;99.90
2212;DHT22;48849;48.758;9.158;2022-09-09T13:12:04;23.40;99.90
2212;DHT22;48849;48.758;9.158;2022-09-09T13:14:35;23.40;99.90
2212;DHT22;48849;48.758;9.158;2022-09-09T13:17:04;23.40;99.90
2212;DHT22;48849;48.758;9.158;2022-09-09T13:19:35;23.40;99.90
2212;DHT22;48849;48.758;9.158;2022-09-09T13:22:11;23.40;99.90
2212;DHT22;48849;48.758;9.158;2022-09-09T13:24:38;23.50;99.90
2212;DHT22;48849;48.758;9.158;2022-09-09T13:27:24;23.60;99.90
2212;DHT22;48849;48.758;9.158;2022-09-09T13:29:54;23.60;99.90
2212;DHT22;48849;48.758;9.158;2022-09-09T13:32:23;23.60;99.90
2212;DHT22;48849;48.758;9.158;2022-09-09T13:34:55;23.60;99.90
2212;DHT22;48849;48.758;9.158;2022-09-09T13:37:26;23.60;99.90
2212;DHT22;48849;48.758;9.158;2022-09-09T13:39:55;23.60;99.90
2212;DHT22;48849;48.758;9.158;2022-09-09T13:42:25;23.60;99.90
2212;DHT22;48849;48.758;9.158;2022-09-09T13:44:53;23.50;99.90
2212;DHT22;48849;48.758;9.158;2022-09-09T13:47:21;23.50;99.90
2212;DHT22;48849;48.758;9.158;2022-09-09T13:49:54;23.50;99.90
2212;DHT22;48849;48.758;9.158;2022-09-09T13:52:21;23.50;99.90
2212;DHT22;48849;48.758;9.158;2022-09-09T13:54:48;23.50;99.90
2212;DHT22;48849;48.758;9.158;2022-09-09T13:57:18;23.50;99.90
2212;DHT22;48849;48.758;9.158;2022-09-09T13:59:45;23.50;99.90
2212;DHT22;48849;48.758;9.158;2022-09-09T14:02:12;23.50;99.90
2212;DHT22;48849;48.758;9.158;2022-09-09T14:04:40;23.50;99.90
2212;DHT22;48849;48.758;9.158;2022-09-09T14:07:11;23.50;99.90
2212;DHT22;48849;48.758;9.158;2022-09-09T14:09:38;23.50;99.90
2212;DHT22;48849;48.758;9.158;2022-09-09T14:12:08;23.50;99.90
2212;DHT22;48849;48.758;9.158;2022-09-09T14:14:35;23.40;99.90
2212;DHT22;48849;48.758;9.158;2022-09-09T14:17:02;23.40;99.90
2212;DHT22;48849;48.758;9.158;2022-09-09T14:19:29;23.30;99.90
2212;DHT22;48849;48.758;9.158;2022-09-09T14:21:56;23.30;99.90
2212;DHT22;48849;48.758;9.158;2022-09-09T14:24:24;23.40;99.90
2212;DHT22;48849;48.758;9.158;2022-09-09T14:26:51;23.40;99.90
2212;DHT22;48849;48.758;9.158;2022-09-09T14:29:18;23.40;99.90
2212;DHT22;48849;48.758;9.158;2022-09-09T14:31:45;23.30;99.90
2212;DHT22;48849;48.758;9.158;2022-09-09T14:34:13;23.30;99.90
2212;DHT22;48849;48.758;9.158;2022-09-09T14:36:40;23.20;99.90
2212;DHT22;48849;48.758;9.158;2022-09-09T14:39:07;23.30;99.90
2212;DHT22;48849;48.758;9.158;2022-09-09T14:41:35;23.30;99.90
2212;DHT22;48849;48.758;9.158;2022-09-09T14:44:02;23.30;99.90
2212;DHT22;48849;48.758;9.158;2022-09-09T14:46:29;23.30;99.90
2212;DHT22;48849;48.758;9.158;2022-09-09T14:48:56;23.30;99.90
2212;DHT22;48849;48.758;9.158;2022-09-09T14:51:25;23.30;99.90
2212;DHT22;48849;48.758;9.158;2022-09-09T14:53:53;23.30;99.90
2212;DHT22;48849;48.758;9.158;2022-09-09T14:56:22;23.20;99.90
2212;DHT22;48849;48.758;9.158;2022-09-09T14:58:53;23.30;99.90
2212;DHT22;48849;48.758;9.158;2022-09-09T15:01:21;23.30;99.90
2212;DHT22;48849;48.758;9.158;2022-09-09T15:03:52;23.20;99.90
2212;DHT22;48849;48.758;9.158;2022-09-09T15:06:22;23.20;99.90
2212;DHT22;48849;48.758;9.158;2022-09-09T15:08:51;23.30;99.90
2212;DHT22;48849;48.758;9.158;2022-09-09T15:11:18;23.30;99.90
2212;DHT22;48849;48.758;9.158;2022-09-09T15:13:45;23.30;99.90
2212;DHT22;48849;48.758;9.158;2022-09-09T15:16:15;23.20;99.90
2212;DHT22;48849;48.758;9.158;2022-09-09T15:18:42;23.20;99.90
2212;DHT22;48849;48.758;9.158;2022-09-09T15:21:11;23.20;99.90
2212;DHT22;48849;48.758;9.158;2022-09-09T15:23:38;23.20;99.90
2212;DHT22;48849;48.758;9.158;2022-09-09T15:26:05;23.10;99.90
2212;DHT22;48849;48.758;9.158;2022-09-09T15:28:32;23.10;99.90
2212;DHT22;48849;48.758;9.158;2022-09-09T15:31:05;23.10;99.90
2212;DHT22;48849;48.758;9.158;2022-09-09T15:33:34;23.10;99.90
2212;DHT22;48849;48.758;9.158;2022-09-09T15:36:12;23.10;99.90
2212;DHT22;48849;48.758;9.158;2022-09-09T15:38:39;23.10;99.90
2212;DHT22;48849;48.758;9.158;2022-09-09T15:41:06;23.10;99.90
2212;DHT22;48849;48.758;9.158;2022-09-09T15:43:33;23.10;99.90
2212;DHT22;48849;48.758;9.158;2022-09-09T15:46:12;23.00;99.90
2212;DHT22;48849;48.758;9.158;2022-09-09T15:48:51;23.00;99.90
2212;DHT22;48849;48.758;9.158;2022-09-09T15:51:18;23.00;99.90
2212;DHT22;48849;48.758;9.158;2022-09-09T15:53:45;23.00;99.90
2212;DHT22;48849;48.758;9.158;2022-09-09T15:56:13;22.90;99.90
2212;DHT22;48849;48.758;9.158;2022-09-09T15:58:39;22.90;99.90
2212;DHT22;48849;48.758;9.158;2022-09-09T16:01:09;22.90;99.90
2212;DHT22;48849;48.758;9.158;2022-09-09T16:03:39;22.90;99.90
2212;DHT22;48849;48.758;9.158;2022-09-09T16:06:09;22.80;99.90
2212;DHT22;48849;48.758;9.158;2022-09-09T16:08:37;22.80;99.90
2212;DHT22;48849;48.758;9.158;2022-09-09T16:11:06;22.80;99.90